sensor_id;sensor_type;location;lat;lon;timestamp;P1;durP1;ratioP1;P2;durP2;ratioP2
57567;SDS011;43403;51.948;5.922;2023-04-06T00:02:18;12.70;;;8.13;;
57567;SDS011;43403;51.948;5.922;2023-04-06T00:04:44;13.10;;;8.50;;
57567;SDS011;43403;51.948;5.922;2023-04-06T00:07:10;14.15;;;8.25;;
57567;SDS011;43403;51.948;5.922;2023-04-06T00:09:37;13.15;;;8.15;;
57567;SDS011;43403;51.948;5.922;2023-04-06T00:12:03;14.15;;;8.68;;
57567;SDS011;43403;51.948;5.922;2023-04-06T00:14:30;12.27;;;7.88;;
57567;SDS011;43403;51.948;5.922;2023-04-06T00:16:56;13.38;;;7.63;;
57567;SDS011;43403;51.948;5.922;2023-04-06T00:19:23;13.40;;;8.10;;
57567;SDS011;43403;51.948;5.922;2023-04-06T00:21:49;15.23;;;8.60;;
57567;SDS011;43403;51.948;5.922;2023-04-06T00:24:16;14.52;;;9.05;;
57567;SDS011;43403;51.948;5.922;2023-04-06T00:26:42;13.27;;;8.50;;
57567;SDS011;43403;51.948;5.922;2023-04-06T00:29:08;14.50;;;8.07;;
57567;SDS011;43403;51.948;5.922;2023-04-06T00:31:36;11.35;;;7.68;;
57567;SDS011;43403;51.948;5.922;2023-04-06T00:34:02;12.75;;;7.88;;
57567;SDS011;43403;51.948;5.922;2023-04-06T00:36:28;14.20;;;9.18;;
57567;SDS011;43403;51.948;5.922;2023-04-06T00:38:56;13.38;;;8.25;;
57567;SDS011;43403;51.948;5.922;2023-04-06T00:41:22;12.02;;;8.00;;
57567;SDS011;43403;51.948;5.922;2023-04-06T00:43:48;15.27;;;8.40;;
57567;SDS011;43403;51.948;5.922;2023-04-06T00:46:15;13.52;;;8.05;;
57567;SDS011;43403;51.948;5.922;2023-04-06T00:48:41;11.93;;;7.65;;
57567;SDS011;43403;51.948;5.922;2023-04-06T00:51:07;13.80;;;8.20;;
57567;SDS011;43403;51.948;5.922;2023-04-06T00:53:34;14.85;;;8.65;;
57567;SDS011;43403;51.948;5.922;2023-04-06T00:56:00;13.88;;;8.80;;
57567;SDS011;43403;51.948;5.922;2023-04-06T00:58:27;13.63;;;8.88;;
57567;SDS011;43403;51.948;5.922;2023-04-06T01:00:54;14.00;;;8.45;;
57567;SDS011;43403;51.948;5.922;2023-04-06T01:03:20;14.93;;;8.10;;
57567;SDS011;43403;51.948;5.922;2023-04-06T01:05:47;13.40;;;8.73;;
57567;SDS011;43403;51.948;5.922;2023-04-06T01:08:13;14.30;;;9.07;;
57567;SDS011;43403;51.948;5.922;2023-04-06T01:10:40;11.30;;;7.88;;
57567;SDS011;43403;51.948;5.922;2023-04-06T01:13:06;12.80;;;8.18;;
57567;SDS011;43403;51.948;5.922;2023-04-06T01:15:33;17.52;;;9.38;;
57567;SDS011;43403;51.948;5.922;2023-04-06T01:17:59;14.27;;;8.25;;
57567;SDS011;43403;51.948;5.922;2023-04-06T01:20:26;15.25;;;8.45;;
57567;SDS011;43403;51.948;5.922;2023-04-06T01:22:52;14.77;;;9.15;;
57567;SDS011;43403;51.948;5.922;2023-04-06T01:25:19;14.68;;;8.35;;
57567;SDS011;43403;51.948;5.922;2023-04-06T01:27:45;13.98;;;8.65;;
57567;SDS011;43403;51.948;5.922;2023-04-06T01:30:11;12.95;;;8.75;;
57567;SDS011;43403;51.948;5.922;2023-04-06T01:32:38;13.50;;;8.07;;
57567;SDS011;43403;51.948;5.922;2023-04-06T01:35:04;15.82;;;8.95;;
57567;SDS011;43403;51.948;5.922;2023-04-06T01:37:31;12.40;;;8.18;;
57567;SDS011;43403;51.948;5.922;2023-04-06T01:39:59;12.35;;;8.13;;
57567;SDS011;43403;51.948;5.922;2023-04-06T01:42:25;15.43;;;9.23;;
57567;SDS011;43403;51.948;5.922;2023-04-06T01:44:52;12.75;;;7.82;;
57567;SDS011;43403;51.948;5.922;2023-04-06T01:47:18;15.10;;;8.95;;
57567;SDS011;43403;51.948;5.922;2023-04-06T01:49:45;15.57;;;8.55;;
57567;SDS011;43403;51.948;5.922;2023-04-06T01:52:11;11.02;;;7.55;;
57567;SDS011;43403;51.948;5.922;2023-04-06T01:54:38;11.70;;;7.28;;
57567;SDS011;43403;51.948;5.922;2023-04-06T01:57:04;13.88;;;8.13;;
57567;SDS011;43403;51.948;5.922;2023-04-06T01:59:31;13.10;;;8.32;;
57567;SDS011;43403;51.948;5.922;2023-04-06T02:01:57;13.43;;;8.43;;
57567;SDS011;43403;51.948;5.922;2023-04-06T02:04:23;13.65;;;7.90;;
57567;SDS011;43403;51.948;5.922;2023-04-06T02:06:50;13.20;;;8.43;;
57567;SDS011;43403;51.948;5.922;2023-04-06T02:09:16;16.65;;;8.40;;
57567;SDS011;43403;51.948;5.922;2023-04-06T02:11:43;13.30;;;8.00;;
57567;SDS011;43403;51.948;5.922;2023-04-06T02:14:09;13.73;;;8.85;;
57567;SDS011;43403;51.948;5.922;2023-04-06T02:16:36;15.15;;;8.68;;
57567;SDS011;43403;51.948;5.922;2023-04-06T02:19:02;13.75;;;8.07;;
57567;SDS011;43403;51.948;5.922;2023-04-06T02:21:29;21.25;;;8.35;;
57567;SDS011;43403;51.948;5.922;2023-04-06T02:23:55;11.25;;;7.47;;
57567;SDS011;43403;51.948;5.922;2023-04-06T02:26:22;13.00;;;8.75;;
57567;SDS011;43403;51.948;5.922;2023-04-06T02:28:48;11.82;;;8.10;;
57567;SDS011;43403;51.948;5.922;2023-04-06T02:31:15;13.73;;;8.75;;
57567;SDS011;43403;51.948;5.922;2023-04-06T02:33:41;12.55;;;8.48;;
57567;SDS011;43403;51.948;5.922;2023-04-06T02:36:08;14.00;;;8.90;;
57567;SDS011;43403;51.948;5.922;2023-04-06T02:38:34;13.32;;;8.45;;
57567;SDS011;43403;51.948;5.922;2023-04-06T02:41:01;14.07;;;8.23;;
57567;SDS011;43403;51.948;5.922;2023-04-06T02:43:27;13.70;;;8.20;;
57567;SDS011;43403;51.948;5.922;2023-04-06T02:45:53;14.95;;;8.77;;
57567;SDS011;43403;51.948;5.922;2023-04-06T02:48:20;12.55;;;8.70;;
57567;SDS011;43403;51.948;5.922;2023-04-06T02:50:46;13.52;;;8.43;;
57567;SDS011;43403;51.948;5.922;2023-04-06T02:53:12;14.10;;;8.52;;
57567;SDS011;43403;51.948;5.922;2023-04-06T02:55:38;15.25;;;9.07;;
57567;SDS011;43403;51.948;5.922;2023-04-06T02:58:05;14.73;;;8.48;;
57567;SDS011;43403;51.948;5.922;2023-04-06T03:00:31;15.95;;;8.85;;
57567;SDS011;43403;51.948;5.922;2023-04-06T03:02:58;12.75;;;8.45;;
57567;SDS011;43403;51.948;5.922;2023-04-06T03:05:24;18.45;;;9.15;;
57567;SDS011;43403;51.948;5.922;2023-04-06T03:07:51;15.75;;;9.00;;
57567;SDS011;43403;51.948;5.922;2023-04-06T03:10:17;14.75;;;8.77;;
57567;SDS011;43403;51.948;5.922;2023-04-06T03:12:43;13.25;;;8.80;;
57567;SDS011;43403;51.948;5.922;2023-04-06T03:15:10;12.15;;;8.55;;
57567;SDS011;43403;51.948;5.922;2023-04-06T03:17:37;15.43;;;9.80;;
57567;SDS011;43403;51.948;5.922;2023-04-06T03:20:03;14.45;;;9.25;;
57567;SDS011;43403;51.948;5.922;2023-04-06T03:22:30;13.45;;;8.68;;
57567;SDS011;43403;51.948;5.922;2023-04-06T03:24:56;13.80;;;8.75;;
57567;SDS011;43403;51.948;5.922;2023-04-06T03:27:23;13.35;;;9.25;;
57567;SDS011;43403;51.948;5.922;2023-04-06T03:29:49;12.32;;;8.40;;
57567;SDS011;43403;51.948;5.922;2023-04-06T03:32:15;14.25;;;8.73;;
57567;SDS011;43403;51.948;5.922;2023-04-06T03:34:42;14.43;;;8.98;;
57567;SDS011;43403;51.948;5.922;2023-04-06T03:37:08;15.52;;;9.60;;
57567;SDS011;43403;51.948;5.922;2023-04-06T03:39:36;13.77;;;9.25;;
57567;SDS011;43403;51.948;5.922;2023-04-06T03:42:02;19.15;;;9.82;;
57567;SDS011;43403;51.948;5.922;2023-04-06T03:44:28;15.82;;;9.80;;
57567;SDS011;43403;51.948;5.922;2023-04-06T03:46:55;13.88;;;9.80;;
57567;SDS011;43403;51.948;5.922;2023-04-06T03:49:22;15.73;;;9.85;;
57567;SDS011;43403;51.948;5.922;2023-04-06T03:51:48;15.35;;;8.93;;
57567;SDS011;43403;51.948;5.922;2023-04-06T03:54:15;14.90;;;9.40;;
57567;SDS011;43403;51.948;5.922;2023-04-06T03:56:41;15.60;;;9.68;;
57567;SDS011;43403;51.948;5.922;2023-04-06T03:59:08;14.25;;;9.90;;
57567;SDS011;43403;51.948;5.922;2023-04-06T04:01:34;15.45;;;10.05;;
57567;SDS011;43403;51.948;5.922;2023-04-06T04:04:01;14.30;;;8.70;;
57567;SDS011;43403;51.948;5.922;2023-04-06T04:06:27;15.25;;;9.75;;
57567;SDS011;43403;51.948;5.922;2023-04-06T04:08:54;17.38;;;9.43;;
57567;SDS011;43403;51.948;5.922;2023-04-06T04:11:20;14.65;;;10.20;;
57567;SDS011;43403;51.948;5.922;2023-04-06T04:13:47;16.38;;;9.52;;
57567;SDS011;43403;51.948;5.922;2023-04-06T04:16:13;16.52;;;9.65;;
57567;SDS011;43403;51.948;5.922;2023-04-06T04:18:40;15.88;;;9.63;;
57567;SDS011;43403;51.948;5.922;2023-04-06T04:21:06;16.65;;;10.00;;
57567;SDS011;43403;51.948;5.922;2023-04-06T04:23:33;16.92;;;9.75;;
57567;SDS011;43403;51.948;5.922;2023-04-06T04:26:02;16.48;;;10.02;;
57567;SDS011;43403;51.948;5.922;2023-04-06T04:28:29;17.38;;;9.32;;
57567;SDS011;43403;51.948;5.922;2023-04-06T04:30:55;15.23;;;9.45;;
57567;SDS011;43403;51.948;5.922;2023-04-06T04:33:22;17.52;;;10.13;;
57567;SDS011;43403;51.948;5.922;2023-04-06T04:35:49;16.17;;;10.60;;
57567;SDS011;43403;51.948;5.922;2023-04-06T04:38:15;17.50;;;9.80;;
57567;SDS011;43403;51.948;5.922;2023-04-06T04:40:41;15.65;;;9.63;;
57567;SDS011;43403;51.948;5.922;2023-04-06T04:43:08;14.85;;;9.30;;
57567;SDS011;43403;51.948;5.922;2023-04-06T04:45:34;15.25;;;9.68;;
57567;SDS011;43403;51.948;5.922;2023-04-06T04:48:01;15.48;;;10.38;;
57567;SDS011;43403;51.948;5.922;2023-04-06T04:50:27;15.93;;;9.80;;
57567;SDS011;43403;51.948;5.922;2023-04-06T04:52:53;13.95;;;9.80;;
57567;SDS011;43403;51.948;5.922;2023-04-06T04:55:20;15.48;;;9.98;;
57567;SDS011;43403;51.948;5.922;2023-04-06T04:57:46;16.17;;;9.95;;
57567;SDS011;43403;51.948;5.922;2023-04-06T05:00:13;18.27;;;10.13;;
57567;SDS011;43403;51.948;5.922;2023-04-06T05:02:39;14.95;;;10.13;;
57567;SDS011;43403;51.948;5.922;2023-04-06T05:05:06;19.40;;;10.60;;
57567;SDS011;43403;51.948;5.922;2023-04-06T05:07:33;14.90;;;10.07;;
57567;SDS011;43403;51.948;5.922;2023-04-06T05:10:00;13.45;;;9.65;;
57567;SDS011;43403;51.948;5.922;2023-04-06T05:12:26;17.02;;;9.73;;
57567;SDS011;43403;51.948;5.922;2023-04-06T05:14:53;16.50;;;10.32;;
57567;SDS011;43403;51.948;5.922;2023-04-06T05:17:20;16.55;;;10.65;;
57567;SDS011;43403;51.948;5.922;2023-04-06T05:19:46;15.25;;;10.75;;
57567;SDS011;43403;51.948;5.922;2023-04-06T05:22:13;18.08;;;11.18;;
57567;SDS011;43403;51.948;5.922;2023-04-06T05:24:42;16.55;;;10.75;;
57567;SDS011;43403;51.948;5.922;2023-04-06T05:27:09;17.95;;;10.40;;
57567;SDS011;43403;51.948;5.922;2023-04-06T05:29:35;15.00;;;10.23;;
57567;SDS011;43403;51.948;5.922;2023-04-06T05:32:01;18.30;;;9.93;;
57567;SDS011;43403;51.948;5.922;2023-04-06T05:34:28;18.25;;;10.63;;
57567;SDS011;43403;51.948;5.922;2023-04-06T05:36:54;17.52;;;11.30;;
57567;SDS011;43403;51.948;5.922;2023-04-06T05:39:20;19.38;;;10.60;;
57567;SDS011;43403;51.948;5.922;2023-04-06T05:41:48;19.60;;;12.90;;
57567;SDS011;43403;51.948;5.922;2023-04-06T05:44:14;24.38;;;14.25;;
57567;SDS011;43403;51.948;5.922;2023-04-06T05:46:40;22.58;;;13.43;;
57567;SDS011;43403;51.948;5.922;2023-04-06T05:49:07;23.02;;;11.27;;
57567;SDS011;43403;51.948;5.922;2023-04-06T05:51:34;19.08;;;10.05;;
57567;SDS011;43403;51.948;5.922;2023-04-06T05:54:00;19.42;;;10.73;;
57567;SDS011;43403;51.948;5.922;2023-04-06T05:56:26;20.77;;;12.00;;
57567;SDS011;43403;51.948;5.922;2023-04-06T05:58:52;19.27;;;11.07;;
57567;SDS011;43403;51.948;5.922;2023-04-06T06:01:19;18.73;;;11.48;;
57567;SDS011;43403;51.948;5.922;2023-04-06T06:03:46;17.55;;;11.63;;
57567;SDS011;43403;51.948;5.922;2023-04-06T06:06:12;21.77;;;11.68;;
57567;SDS011;43403;51.948;5.922;2023-04-06T06:08:38;18.95;;;10.90;;
57567;SDS011;43403;51.948;5.922;2023-04-06T06:11:05;20.50;;;11.00;;
57567;SDS011;43403;51.948;5.922;2023-04-06T06:13:31;19.50;;;11.77;;
57567;SDS011;43403;51.948;5.922;2023-04-06T06:15:58;18.25;;;11.02;;
57567;SDS011;43403;51.948;5.922;2023-04-06T06:18:24;21.50;;;11.38;;
57567;SDS011;43403;51.948;5.922;2023-04-06T06:20:50;19.65;;;10.73;;
57567;SDS011;43403;51.948;5.922;2023-04-06T06:23:17;18.65;;;10.60;;
57567;SDS011;43403;51.948;5.922;2023-04-06T06:25:43;21.10;;;11.23;;
57567;SDS011;43403;51.948;5.922;2023-04-06T06:28:09;20.17;;;12.02;;
57567;SDS011;43403;51.948;5.922;2023-04-06T06:30:36;23.30;;;13.52;;
57567;SDS011;43403;51.948;5.922;2023-04-06T06:33:02;18.65;;;11.48;;
57567;SDS011;43403;51.948;5.922;2023-04-06T06:35:29;23.42;;;11.95;;
57567;SDS011;43403;51.948;5.922;2023-04-06T06:37:55;18.17;;;10.52;;
57567;SDS011;43403;51.948;5.922;2023-04-06T06:40:22;18.85;;;10.63;;
57567;SDS011;43403;51.948;5.922;2023-04-06T06:42:50;18.17;;;11.32;;
57567;SDS011;43403;51.948;5.922;2023-04-06T06:45:17;19.88;;;11.07;;
57567;SDS011;43403;51.948;5.922;2023-04-06T06:47:44;17.50;;;10.98;;
57567;SDS011;43403;51.948;5.922;2023-04-06T06:50:10;17.95;;;10.05;;
57567;SDS011;43403;51.948;5.922;2023-04-06T06:52:37;19.92;;;11.18;;
57567;SDS011;43403;51.948;5.922;2023-04-06T06:55:03;21.67;;;11.75;;
57567;SDS011;43403;51.948;5.922;2023-04-06T06:57:30;20.42;;;10.82;;
57567;SDS011;43403;51.948;5.922;2023-04-06T06:59:56;19.98;;;11.43;;
57567;SDS011;43403;51.948;5.922;2023-04-06T07:02:22;20.02;;;11.98;;
57567;SDS011;43403;51.948;5.922;2023-04-06T07:04:49;18.35;;;11.02;;
57567;SDS011;43403;51.948;5.922;2023-04-06T07:07:16;18.73;;;12.30;;
57567;SDS011;43403;51.948;5.922;2023-04-06T07:09:42;21.33;;;11.63;;
57567;SDS011;43403;51.948;5.922;2023-04-06T07:12:08;20.35;;;11.38;;
57567;SDS011;43403;51.948;5.922;2023-04-06T07:14:35;19.58;;;11.63;;
57567;SDS011;43403;51.948;5.922;2023-04-06T07:17:02;19.92;;;11.75;;
57567;SDS011;43403;51.948;5.922;2023-04-06T07:19:29;19.73;;;11.75;;
57567;SDS011;43403;51.948;5.922;2023-04-06T07:21:55;25.77;;;12.20;;
57567;SDS011;43403;51.948;5.922;2023-04-06T07:24:22;22.00;;;11.25;;
57567;SDS011;43403;51.948;5.922;2023-04-06T07:26:48;19.33;;;11.77;;
57567;SDS011;43403;51.948;5.922;2023-04-06T07:29:15;21.73;;;10.80;;
57567;SDS011;43403;51.948;5.922;2023-04-06T07:31:41;21.60;;;11.95;;
57567;SDS011;43403;51.948;5.922;2023-04-06T07:34:08;18.98;;;10.82;;
57567;SDS011;43403;51.948;5.922;2023-04-06T07:36:34;18.15;;;11.00;;
57567;SDS011;43403;51.948;5.922;2023-04-06T07:39:01;19.55;;;11.52;;
57567;SDS011;43403;51.948;5.922;2023-04-06T07:41:30;21.83;;;11.00;;
57567;SDS011;43403;51.948;5.922;2023-04-06T07:43:57;23.75;;;12.45;;
57567;SDS011;43403;51.948;5.922;2023-04-06T07:46:23;22.40;;;10.50;;
57567;SDS011;43403;51.948;5.922;2023-04-06T07:48:50;16.67;;;11.50;;
57567;SDS011;43403;51.948;5.922;2023-04-06T07:51:17;21.67;;;11.55;;
57567;SDS011;43403;51.948;5.922;2023-04-06T07:53:44;18.25;;;11.18;;
57567;SDS011;43403;51.948;5.922;2023-04-06T07:56:10;20.55;;;11.93;;
57567;SDS011;43403;51.948;5.922;2023-04-06T07:58:38;19.88;;;11.52;;
57567;SDS011;43403;51.948;5.922;2023-04-06T08:01:04;21.08;;;10.80;;
57567;SDS011;43403;51.948;5.922;2023-04-06T08:03:33;23.17;;;11.68;;
57567;SDS011;43403;51.948;5.922;2023-04-06T08:06:01;16.25;;;10.18;;
57567;SDS011;43403;51.948;5.922;2023-04-06T08:08:28;19.88;;;10.65;;
57567;SDS011;43403;51.948;5.922;2023-04-06T08:10:55;18.23;;;11.25;;
57567;SDS011;43403;51.948;5.922;2023-04-06T08:13:21;19.10;;;11.48;;
57567;SDS011;43403;51.948;5.922;2023-04-06T08:15:47;20.95;;;11.50;;
57567;SDS011;43403;51.948;5.922;2023-04-06T08:18:14;19.98;;;10.93;;
57567;SDS011;43403;51.948;5.922;2023-04-06T08:20:40;19.30;;;10.95;;
57567;SDS011;43403;51.948;5.922;2023-04-06T08:23:06;20.38;;;10.90;;
57567;SDS011;43403;51.948;5.922;2023-04-06T08:25:35;21.13;;;11.10;;
57567;SDS011;43403;51.948;5.922;2023-04-06T08:28:02;19.92;;;11.32;;
57567;SDS011;43403;51.948;5.922;2023-04-06T08:30:28;19.60;;;11.50;;
57567;SDS011;43403;51.948;5.922;2023-04-06T08:32:55;18.88;;;11.60;;
57567;SDS011;43403;51.948;5.922;2023-04-06T08:35:21;22.77;;;11.88;;
57567;SDS011;43403;51.948;5.922;2023-04-06T08:37:48;22.65;;;12.43;;
57567;SDS011;43403;51.948;5.922;2023-04-06T08:40:14;23.77;;;13.07;;
57567;SDS011;43403;51.948;5.922;2023-04-06T08:42:44;18.90;;;10.70;;
57567;SDS011;43403;51.948;5.922;2023-04-06T08:45:12;19.85;;;11.90;;
57567;SDS011;43403;51.948;5.922;2023-04-06T08:47:40;19.92;;;11.90;;
57567;SDS011;43403;51.948;5.922;2023-04-06T08:50:07;20.60;;;12.38;;
57567;SDS011;43403;51.948;5.922;2023-04-06T08:52:34;23.52;;;12.40;;
57567;SDS011;43403;51.948;5.922;2023-04-06T08:55:00;20.30;;;12.25;;
57567;SDS011;43403;51.948;5.922;2023-04-06T08:57:27;21.45;;;13.00;;
57567;SDS011;43403;51.948;5.922;2023-04-06T08:59:53;21.45;;;12.15;;
57567;SDS011;43403;51.948;5.922;2023-04-06T09:02:20;28.10;;;12.80;;
57567;SDS011;43403;51.948;5.922;2023-04-06T09:04:47;20.30;;;13.13;;
57567;SDS011;43403;51.948;5.922;2023-04-06T09:07:14;19.20;;;12.48;;
57567;SDS011;43403;51.948;5.922;2023-04-06T09:09:41;21.60;;;12.65;;
57567;SDS011;43403;51.948;5.922;2023-04-06T09:12:23;19.25;;;12.13;;
57567;SDS011;43403;51.948;5.922;2023-04-06T09:14:50;17.63;;;11.63;;
57567;SDS011;43403;51.948;5.922;2023-04-06T09:17:20;22.05;;;12.63;;
57567;SDS011;43403;51.948;5.922;2023-04-06T09:19:47;23.30;;;14.57;;
57567;SDS011;43403;51.948;5.922;2023-04-06T09:22:13;22.55;;;12.98;;
57567;SDS011;43403;51.948;5.922;2023-04-06T09:24:46;24.58;;;13.25;;
57567;SDS011;43403;51.948;5.922;2023-04-06T09:27:13;21.40;;;13.10;;
57567;SDS011;43403;51.948;5.922;2023-04-06T09:29:43;28.02;;;13.98;;
57567;SDS011;43403;51.948;5.922;2023-04-06T09:32:10;18.63;;;12.52;;
57567;SDS011;43403;51.948;5.922;2023-04-06T09:34:39;20.73;;;12.38;;
57567;SDS011;43403;51.948;5.922;2023-04-06T09:37:12;23.25;;;13.32;;
57567;SDS011;43403;51.948;5.922;2023-04-06T09:39:39;18.10;;;12.65;;
57567;SDS011;43403;51.948;5.922;2023-04-06T09:42:05;21.80;;;12.57;;
57567;SDS011;43403;51.948;5.922;2023-04-06T09:44:32;26.08;;;13.40;;
57567;SDS011;43403;51.948;5.922;2023-04-06T09:46:58;19.52;;;12.90;;
57567;SDS011;43403;51.948;5.922;2023-04-06T09:49:30;20.35;;;12.68;;
57567;SDS011;43403;51.948;5.922;2023-04-06T09:52:00;22.02;;;13.90;;
57567;SDS011;43403;51.948;5.922;2023-04-06T09:54:28;24.58;;;14.45;;
57567;SDS011;43403;51.948;5.922;2023-04-06T09:57:07;24.70;;;14.20;;
57567;SDS011;43403;51.948;5.922;2023-04-06T10:02:08;24.52;;;13.90;;
57567;SDS011;43403;51.948;5.922;2023-04-06T10:04:40;29.10;;;15.65;;
57567;SDS011;43403;51.948;5.922;2023-04-06T10:07:09;24.20;;;14.32;;
57567;SDS011;43403;51.948;5.922;2023-04-06T10:09:37;23.95;;;14.43;;
57567;SDS011;43403;51.948;5.922;2023-04-06T10:12:04;26.73;;;15.07;;
57567;SDS011;43403;51.948;5.922;2023-04-06T10:14:32;24.88;;;14.43;;
57567;SDS011;43403;51.948;5.922;2023-04-06T10:16:59;23.30;;;13.27;;
57567;SDS011;43403;51.948;5.922;2023-04-06T10:19:29;24.77;;;14.20;;
57567;SDS011;43403;51.948;5.922;2023-04-06T10:21:57;21.38;;;13.35;;
57567;SDS011;43403;51.948;5.922;2023-04-06T10:24:25;21.10;;;12.57;;
57567;SDS011;43403;51.948;5.922;2023-04-06T10:26:58;20.17;;;12.95;;
57567;SDS011;43403;51.948;5.922;2023-04-06T10:29:24;25.75;;;13.40;;
57567;SDS011;43403;51.948;5.922;2023-04-06T10:31:50;22.55;;;12.98;;
57567;SDS011;43403;51.948;5.922;2023-04-06T10:34:17;27.95;;;13.40;;
57567;SDS011;43403;51.948;5.922;2023-04-06T10:36:43;28.50;;;12.57;;
57567;SDS011;43403;51.948;5.922;2023-04-06T10:39:10;21.98;;;12.40;;
57567;SDS011;43403;51.948;5.922;2023-04-06T10:41:41;21.60;;;12.80;;
57567;SDS011;43403;51.948;5.922;2023-04-06T10:44:07;22.48;;;12.95;;
57567;SDS011;43403;51.948;5.922;2023-04-06T10:46:34;19.70;;;12.35;;
57567;SDS011;43403;51.948;5.922;2023-04-06T10:49:10;25.20;;;12.75;;
57567;SDS011;43403;51.948;5.922;2023-04-06T10:51:38;19.95;;;12.93;;
57567;SDS011;43403;51.948;5.922;2023-04-06T10:54:06;21.17;;;12.00;;
57567;SDS011;43403;51.948;5.922;2023-04-06T10:56:32;19.92;;;12.23;;
57567;SDS011;43403;51.948;5.922;2023-04-06T10:59:05;21.33;;;11.82;;
57567;SDS011;43403;51.948;5.922;2023-04-06T11:01:32;20.20;;;11.07;;
57567;SDS011;43403;51.948;5.922;2023-04-06T11:03:59;20.52;;;11.27;;
57567;SDS011;43403;51.948;5.922;2023-04-06T11:06:26;20.92;;;11.73;;
57567;SDS011;43403;51.948;5.922;2023-04-06T11:08:54;20.70;;;11.75;;
57567;SDS011;43403;51.948;5.922;2023-04-06T11:13:51;17.42;;;11.73;;
57567;SDS011;43403;51.948;5.922;2023-04-06T11:16:24;19.67;;;13.10;;
57567;SDS011;43403;51.948;5.922;2023-04-06T11:18:52;20.95;;;11.30;;
57567;SDS011;43403;51.948;5.922;2023-04-06T11:21:19;16.90;;;11.60;;
57567;SDS011;43403;51.948;5.922;2023-04-06T11:23:46;20.10;;;11.75;;
57567;SDS011;43403;51.948;5.922;2023-04-06T11:26:12;18.35;;;10.88;;
57567;SDS011;43403;51.948;5.922;2023-04-06T11:28:40;16.25;;;10.80;;
57567;SDS011;43403;51.948;5.922;2023-04-06T11:31:08;19.40;;;11.15;;
57567;SDS011;43403;51.948;5.922;2023-04-06T11:33:35;16.70;;;10.68;;
57567;SDS011;43403;51.948;5.922;2023-04-06T11:36:02;17.60;;;11.98;;
57567;SDS011;43403;51.948;5.922;2023-04-06T11:38:29;14.30;;;9.57;;
57567;SDS011;43403;51.948;5.922;2023-04-06T11:40:56;16.48;;;9.48;;
57567;SDS011;43403;51.948;5.922;2023-04-06T11:43:28;14.15;;;9.48;;
57567;SDS011;43403;51.948;5.922;2023-04-06T11:46:01;14.07;;;9.05;;
57567;SDS011;43403;51.948;5.922;2023-04-06T11:48:28;14.95;;;9.10;;
57567;SDS011;43403;51.948;5.922;2023-04-06T11:50:56;16.58;;;9.75;;
57567;SDS011;43403;51.948;5.922;2023-04-06T11:53:23;13.30;;;9.37;;
57567;SDS011;43403;51.948;5.922;2023-04-06T11:55:49;17.27;;;8.95;;
57567;SDS011;43403;51.948;5.922;2023-04-06T11:58:15;16.38;;;9.90;;
57567;SDS011;43403;51.948;5.922;2023-04-06T12:00:43;14.50;;;9.15;;
57567;SDS011;43403;51.948;5.922;2023-04-06T12:03:12;14.55;;;9.75;;
57567;SDS011;43403;51.948;5.922;2023-04-06T12:05:39;11.98;;;7.80;;
57567;SDS011;43403;51.948;5.922;2023-04-06T12:08:06;11.48;;;7.88;;
57567;SDS011;43403;51.948;5.922;2023-04-06T12:10:32;12.18;;;8.18;;
57567;SDS011;43403;51.948;5.922;2023-04-06T12:12:58;14.63;;;8.38;;
57567;SDS011;43403;51.948;5.922;2023-04-06T12:15:25;14.57;;;9.20;;
57567;SDS011;43403;51.948;5.922;2023-04-06T12:17:51;15.90;;;8.18;;
57567;SDS011;43403;51.948;5.922;2023-04-06T12:20:18;14.95;;;9.60;;
57567;SDS011;43403;51.948;5.922;2023-04-06T12:22:52;13.02;;;8.27;;
57567;SDS011;43403;51.948;5.922;2023-04-06T12:25:19;14.55;;;8.93;;
57567;SDS011;43403;51.948;5.922;2023-04-06T12:27:45;15.63;;;8.75;;
57567;SDS011;43403;51.948;5.922;2023-04-06T12:30:12;14.80;;;8.05;;
57567;SDS011;43403;51.948;5.922;2023-04-06T12:32:38;16.17;;;8.90;;
57567;SDS011;43403;51.948;5.922;2023-04-06T12:35:05;12.73;;;8.15;;
57567;SDS011;43403;51.948;5.922;2023-04-06T12:37:31;13.50;;;8.40;;
57567;SDS011;43403;51.948;5.922;2023-04-06T12:39:58;11.15;;;7.13;;
57567;SDS011;43403;51.948;5.922;2023-04-06T12:42:24;13.10;;;7.05;;
57567;SDS011;43403;51.948;5.922;2023-04-06T12:44:50;11.93;;;5.93;;
57567;SDS011;43403;51.948;5.922;2023-04-06T12:47:17;8.65;;;5.32;;
57567;SDS011;43403;51.948;5.922;2023-04-06T12:49:44;9.38;;;5.93;;
57567;SDS011;43403;51.948;5.922;2023-04-06T12:52:10;8.45;;;4.97;;
57567;SDS011;43403;51.948;5.922;2023-04-06T12:54:37;9.75;;;5.70;;
57567;SDS011;43403;51.948;5.922;2023-04-06T12:57:03;10.18;;;5.82;;
57567;SDS011;43403;51.948;5.922;2023-04-06T12:59:29;10.30;;;6.50;;
57567;SDS011;43403;51.948;5.922;2023-04-06T13:02:00;9.93;;;5.93;;
57567;SDS011;43403;51.948;5.922;2023-04-06T13:04:27;10.57;;;6.25;;
57567;SDS011;43403;51.948;5.922;2023-04-06T13:06:53;11.98;;;5.93;;
57567;SDS011;43403;51.948;5.922;2023-04-06T13:09:20;10.95;;;6.07;;
57567;SDS011;43403;51.948;5.922;2023-04-06T13:11:46;8.27;;;5.43;;
57567;SDS011;43403;51.948;5.922;2023-04-06T13:14:13;10.82;;;5.55;;
57567;SDS011;43403;51.948;5.922;2023-04-06T13:16:39;10.02;;;5.80;;
57567;SDS011;43403;51.948;5.922;2023-04-06T13:19:06;10.50;;;5.47;;
57567;SDS011;43403;51.948;5.922;2023-04-06T13:21:32;10.18;;;6.43;;
57567;SDS011;43403;51.948;5.922;2023-04-06T13:23:59;10.65;;;5.97;;
57567;SDS011;43403;51.948;5.922;2023-04-06T13:26:26;12.15;;;6.47;;
57567;SDS011;43403;51.948;5.922;2023-04-06T13:28:52;9.48;;;5.32;;
57567;SDS011;43403;51.948;5.922;2023-04-06T13:31:18;9.23;;;6.00;;
57567;SDS011;43403;51.948;5.922;2023-04-06T13:33:45;9.43;;;5.72;;
57567;SDS011;43403;51.948;5.922;2023-04-06T13:36:11;9.60;;;5.75;;
57567;SDS011;43403;51.948;5.922;2023-04-06T13:38:40;10.10;;;5.80;;
57567;SDS011;43403;51.948;5.922;2023-04-06T13:41:07;11.63;;;6.55;;
57567;SDS011;43403;51.948;5.922;2023-04-06T13:43:34;11.50;;;7.45;;
57567;SDS011;43403;51.948;5.922;2023-04-06T13:46:00;12.02;;;6.57;;
57567;SDS011;43403;51.948;5.922;2023-04-06T13:48:27;10.50;;;7.18;;
57567;SDS011;43403;51.948;5.922;2023-04-06T13:50:53;11.15;;;6.68;;
57567;SDS011;43403;51.948;5.922;2023-04-06T13:53:20;10.50;;;6.68;;
57567;SDS011;43403;51.948;5.922;2023-04-06T13:55:55;12.07;;;6.70;;
57567;SDS011;43403;51.948;5.922;2023-04-06T13:58:22;13.75;;;6.95;;
57567;SDS011;43403;51.948;5.922;2023-04-06T14:00:48;13.25;;;8.25;;
57567;SDS011;43403;51.948;5.922;2023-04-06T14:03:14;13.48;;;7.97;;
57567;SDS011;43403;51.948;5.922;2023-04-06T14:05:41;11.98;;;7.50;;
57567;SDS011;43403;51.948;5.922;2023-04-06T14:08:07;18.40;;;7.63;;
57567;SDS011;43403;51.948;5.922;2023-04-06T14:10:37;16.20;;;9.02;;
57567;SDS011;43403;51.948;5.922;2023-04-06T14:13:04;11.18;;;6.78;;
57567;SDS011;43403;51.948;5.922;2023-04-06T14:15:30;12.00;;;8.00;;
57567;SDS011;43403;51.948;5.922;2023-04-06T14:17:57;13.18;;;7.93;;
57567;SDS011;43403;51.948;5.922;2023-04-06T14:20:23;12.40;;;7.40;;
57567;SDS011;43403;51.948;5.922;2023-04-06T14:22:49;11.68;;;7.03;;
57567;SDS011;43403;51.948;5.922;2023-04-06T14:27:44;12.30;;;8.13;;
57567;SDS011;43403;51.948;5.922;2023-04-06T14:30:11;11.90;;;7.70;;
57567;SDS011;43403;51.948;5.922;2023-04-06T14:32:38;11.02;;;7.03;;
57567;SDS011;43403;51.948;5.922;2023-04-06T14:35:04;12.52;;;7.35;;